sensor_id;sensor_type;location;lat;lon;timestamp;temperature;humidity
5868;DHT22;2960;49.142;7.768;2023-11-21T00:00:03;11.10;80.50
5868;DHT22;2960;49.142;7.768;2023-11-21T00:02:36;11.10;80.50
5868;DHT22;2960;49.142;7.768;2023-11-21T00:05:06;11.10;80.50
5868;DHT22;2960;49.142;7.768;2023-11-21T00:07:33;11.10;80.60
5868;DHT22;2960;49.142;7.768;2023-11-21T00:10:01;11.20;80.80
5868;DHT22;2960;49.142;7.768;2023-11-21T00:12:28;11.20;80.70
5868;DHT22;2960;49.142;7.768;2023-11-21T00:14:56;11.20;81.50
5868;DHT22;2960;49.142;7.768;2023-11-21T00:17:24;11.20;80.80
5868;DHT22;2960;49.142;7.768;2023-11-21T00:19:51;11.20;80.80
5868;DHT22;2960;49.142;7.768;2023-11-21T00:22:20;11.20;80.80
5868;DHT22;2960;49.142;7.768;2023-11-21T00:24:47;11.20;81.50
5868;DHT22;2960;49.142;7.768;2023-11-21T00:27:15;11.20;80.80
5868;DHT22;2960;49.142;7.768;2023-11-21T00:29:42;11.20;80.90
5868;DHT22;2960;49.142;7.768;2023-11-21T00:32:09;11.20;80.90
5868;DHT22;2960;49.142;7.768;2023-11-21T00:34:36;11.20;80.90
5868;DHT22;2960;49.142;7.768;2023-11-21T00:37:03;11.20;80.90
5868;DHT22;2960;49.142;7.768;2023-11-21T00:39:32;11.20;81.00
5868;DHT22;2960;49.142;7.768;2023-11-21T00:42:00;11.20;81.00
5868;DHT22;2960;49.142;7.768;2023-11-21T00:44:28;11.20;81.00
5868;DHT22;2960;49.142;7.768;2023-11-21T00:46:55;11.20;81.10
5868;DHT22;2960;49.142;7.768;2023-11-21T00:49:22;11.30;81.20
5868;DHT22;2960;49.142;7.768;2023-11-21T00:51:49;11.20;81.10
5868;DHT22;2960;49.142;7.768;2023-11-21T00:54:16;11.20;81.10
5868;DHT22;2960;49.142;7.768;2023-11-21T00:56:44;11.20;81.10
5868;DHT22;2960;49.142;7.768;2023-11-21T00:59:13;11.30;81.30
5868;DHT22;2960;49.142;7.768;2023-11-21T01:01:40;11.30;81.30
5868;DHT22;2960;49.142;7.768;2023-11-21T01:04:07;11.30;81.30
5868;DHT22;2960;49.142;7.768;2023-11-21T01:06:33;11.30;81.30
5868;DHT22;2960;49.142;7.768;2023-11-21T01:09:00;11.30;81.30
5868;DHT22;2960;49.142;7.768;2023-11-21T01:11:33;11.30;81.30
5868;DHT22;2960;49.142;7.768;2023-11-21T01:14:03;11.30;81.30
5868;DHT22;2960;49.142;7.768;2023-11-21T01:16:32;11.30;81.30
5868;DHT22;2960;49.142;7.768;2023-11-21T01:18:59;11.20;81.10
5868;DHT22;2960;49.142;7.768;2023-11-21T01:21:27;11.20;81.20
5868;DHT22;2960;49.142;7.768;2023-11-21T01:23:54;11.20;81.20
5868;DHT22;2960;49.142;7.768;2023-11-21T01:26:21;11.30;81.40
5868;DHT22;2960;49.142;7.768;2023-11-21T01:28:49;11.20;81.30
5868;DHT22;2960;49.142;7.768;2023-11-21T01:31:17;11.20;81.30
5868;DHT22;2960;49.142;7.768;2023-11-21T01:33:45;11.20;81.40
5868;DHT22;2960;49.142;7.768;2023-11-21T01:36:13;11.20;81.40
5868;DHT22;2960;49.142;7.768;2023-11-21T01:38:40;11.20;81.40
5868;DHT22;2960;49.142;7.768;2023-11-21T01:41:07;11.30;81.50
5868;DHT22;2960;49.142;7.768;2023-11-21T01:43:37;11.20;81.40
5868;DHT22;2960;49.142;7.768;2023-11-21T01:46:04;11.20;81.40
5868;DHT22;2960;49.142;7.768;2023-11-21T01:48:34;11.20;81.40
5868;DHT22;2960;49.142;7.768;2023-11-21T01:51:02;11.20;82.20
5868;DHT22;2960;49.142;7.768;2023-11-21T01:53:30;11.20;81.60
5868;DHT22;2960;49.142;7.768;2023-11-21T01:55:57;11.20;81.70
5868;DHT22;2960;49.142;7.768;2023-11-21T01:58:25;11.20;81.80
5868;DHT22;2960;49.142;7.768;2023-11-21T02:00:52;11.10;81.80
5868;DHT22;2960;49.142;7.768;2023-11-21T02:03:20;11.10;81.90
5868;DHT22;2960;49.142;7.768;2023-11-21T02:05:49;11.10;82.00
5868;DHT22;2960;49.142;7.768;2023-11-21T02:08:16;11.10;82.80
5868;DHT22;2960;49.142;7.768;2023-11-21T02:10:45;11.10;82.10
5868;DHT22;2960;49.142;7.768;2023-11-21T02:13:11;11.10;82.20
5868;DHT22;2960;49.142;7.768;2023-11-21T02:15:38;11.00;82.10
5868;DHT22;2960;49.142;7.768;2023-11-21T02:18:06;11.00;82.30
5868;DHT22;2960;49.142;7.768;2023-11-21T02:20:35;11.00;82.20
5868;DHT22;2960;49.142;7.768;2023-11-21T02:23:05;11.00;82.30
5868;DHT22;2960;49.142;7.768;2023-11-21T02:25:33;11.00;82.30
5868;DHT22;2960;49.142;7.768;2023-11-21T02:28:03;11.10;82.40
5868;DHT22;2960;49.142;7.768;2023-11-21T02:30:32;11.10;82.40
5868;DHT22;2960;49.142;7.768;2023-11-21T02:33:00;11.10;82.40
5868;DHT22;2960;49.142;7.768;2023-11-21T02:35:27;11.10;82.40
5868;DHT22;2960;49.142;7.768;2023-11-21T02:37:56;11.10;82.20
5868;DHT22;2960;49.142;7.768;2023-11-21T02:40:25;11.10;82.20
5868;DHT22;2960;49.142;7.768;2023-11-21T02:42:52;11.10;82.20
5868;DHT22;2960;49.142;7.768;2023-11-21T02:45:20;11.10;82.20
5868;DHT22;2960;49.142;7.768;2023-11-21T02:47:48;11.10;82.20
5868;DHT22;2960;49.142;7.768;2023-11-21T02:50:16;11.10;82.10
5868;DHT22;2960;49.142;7.768;2023-11-21T02:52:44;11.10;82.10
5868;DHT22;2960;49.142;7.768;2023-11-21T02:55:11;11.10;82.20
5868;DHT22;2960;49.142;7.768;2023-11-21T02:57:40;11.10;82.20
5868;DHT22;2960;49.142;7.768;2023-11-21T03:00:08;11.10;82.20
5868;DHT22;2960;49.142;7.768;2023-11-21T03:02:38;11.10;82.20
5868;DHT22;2960;49.142;7.768;2023-11-21T03:05:06;11.10;82.30
5868;DHT22;2960;49.142;7.768;2023-11-21T03:07:34;11.10;82.40
5868;DHT22;2960;49.142;7.768;2023-11-21T03:10:02;11.10;82.40
5868;DHT22;2960;49.142;7.768;2023-11-21T03:12:29;11.10;82.40
5868;DHT22;2960;49.142;7.768;2023-11-21T03:14:58;11.10;82.50
5868;DHT22;2960;49.142;7.768;2023-11-21T03:17:27;11.10;82.50
5868;DHT22;2960;49.142;7.768;2023-11-21T03:19:55;11.20;82.60
5868;DHT22;2960;49.142;7.768;2023-11-21T03:22:22;11.20;82.60
5868;DHT22;2960;49.142;7.768;2023-11-21T03:24:50;11.20;82.60
5868;DHT22;2960;49.142;7.768;2023-11-21T03:27:17;11.20;82.60
5868;DHT22;2960;49.142;7.768;2023-11-21T03:29:44;11.20;82.70
5868;DHT22;2960;49.142;7.768;2023-11-21T03:32:13;11.20;82.70
5868;DHT22;2960;49.142;7.768;2023-11-21T03:34:53;11.20;82.70
5868;DHT22;2960;49.142;7.768;2023-11-21T03:37:22;11.20;82.70
5868;DHT22;2960;49.142;7.768;2023-11-21T03:39:50;11.20;82.70
5868;DHT22;2960;49.142;7.768;2023-11-21T03:42:17;11.20;82.80
5868;DHT22;2960;49.142;7.768;2023-11-21T03:44:44;11.20;82.90
5868;DHT22;2960;49.142;7.768;2023-11-21T03:47:10;11.20;82.80
5868;DHT22;2960;49.142;7.768;2023-11-21T03:49:38;11.20;82.90
5868;DHT22;2960;49.142;7.768;2023-11-21T03:52:05;11.20;82.90
5868;DHT22;2960;49.142;7.768;2023-11-21T03:54:34;11.30;83.00
5868;DHT22;2960;49.142;7.768;2023-11-21T03:57:02;11.20;82.90
5868;DHT22;2960;49.142;7.768;2023-11-21T03:59:29;11.20;82.90
5868;DHT22;2960;49.142;7.768;2023-11-21T04:01:56;11.20;83.70
5868;DHT22;2960;49.142;7.768;2023-11-21T04:04:23;11.20;83.00
5868;DHT22;2960;49.142;7.768;2023-11-21T04:06:52;11.20;82.90
5868;DHT22;2960;49.142;7.768;2023-11-21T04:09:19;11.20;83.00
5868;DHT22;2960;49.142;7.768;2023-11-21T04:11:46;11.20;83.10
5868;DHT22;2960;49.142;7.768;2023-11-21T04:14:13;11.20;83.10
5868;DHT22;2960;49.142;7.768;2023-11-21T04:16:41;11.20;83.20
5868;DHT22;2960;49.142;7.768;2023-11-21T04:19:08;11.20;83.20
5868;DHT22;2960;49.142;7.768;2023-11-21T04:21:36;11.20;83.90
5868;DHT22;2960;49.142;7.768;2023-11-21T04:24:06;11.20;83.30
5868;DHT22;2960;49.142;7.768;2023-11-21T04:26:33;11.20;83.30
5868;DHT22;2960;49.142;7.768;2023-11-21T04:29:00;11.20;83.30
5868;DHT22;2960;49.142;7.768;2023-11-21T04:31:28;11.20;83.30
5868;DHT22;2960;49.142;7.768;2023-11-21T04:33:55;11.20;83.30
5868;DHT22;2960;49.142;7.768;2023-11-21T04:36:22;11.20;83.30
5868;DHT22;2960;49.142;7.768;2023-11-21T04:38:50;11.20;83.30
5868;DHT22;2960;49.142;7.768;2023-11-21T04:41:18;11.20;83.30
5868;DHT22;2960;49.142;7.768;2023-11-21T04:43:45;11.20;83.40
5868;DHT22;2960;49.142;7.768;2023-11-21T04:46:12;11.20;83.50
5868;DHT22;2960;49.142;7.768;2023-11-21T04:48:40;11.10;83.50
5868;DHT22;2960;49.142;7.768;2023-11-21T04:51:07;11.20;83.60
5868;DHT22;2960;49.142;7.768;2023-11-21T04:53:34;11.10;83.50
5868;DHT22;2960;49.142;7.768;2023-11-21T04:56:01;11.20;83.70
5868;DHT22;2960;49.142;7.768;2023-11-21T04:58:30;11.10;83.70
5868;DHT22;2960;49.142;7.768;2023-11-21T05:00:58;11.10;83.70
5868;DHT22;2960;49.142;7.768;2023-11-21T05:03:26;11.10;83.80
5868;DHT22;2960;49.142;7.768;2023-11-21T05:05:55;11.10;83.80
5868;DHT22;2960;49.142;7.768;2023-11-21T05:08:22;11.10;83.90
5868;DHT22;2960;49.142;7.768;2023-11-21T05:10:52;11.10;83.90
5868;DHT22;2960;49.142;7.768;2023-11-21T05:13:20;11.10;83.90
5868;DHT22;2960;49.142;7.768;2023-11-21T05:15:49;11.10;84.00
5868;DHT22;2960;49.142;7.768;2023-11-21T05:18:17;11.10;84.00
5868;DHT22;2960;49.142;7.768;2023-11-21T05:20:44;11.10;84.00
5868;DHT22;2960;49.142;7.768;2023-11-21T05:23:11;11.10;84.00
5868;DHT22;2960;49.142;7.768;2023-11-21T05:25:40;11.10;84.00
5868;DHT22;2960;49.142;7.768;2023-11-21T05:28:08;11.10;84.10
5868;DHT22;2960;49.142;7.768;2023-11-21T05:30:35;11.10;84.00
5868;DHT22;2960;49.142;7.768;2023-11-21T05:33:05;11.10;84.10
5868;DHT22;2960;49.142;7.768;2023-11-21T05:35:32;11.10;84.10
5868;DHT22;2960;49.142;7.768;2023-11-21T05:37:59;11.20;84.20
5868;DHT22;2960;49.142;7.768;2023-11-21T05:40:26;11.20;84.20
5868;DHT22;2960;49.142;7.768;2023-11-21T05:42:55;11.20;84.20
5868;DHT22;2960;49.142;7.768;2023-11-21T05:45:22;11.10;84.10
5868;DHT22;2960;49.142;7.768;2023-11-21T05:47:49;11.20;85.00
5868;DHT22;2960;49.142;7.768;2023-11-21T05:50:18;11.20;84.20
5868;DHT22;2960;49.142;7.768;2023-11-21T05:52:46;11.20;84.20
5868;DHT22;2960;49.142;7.768;2023-11-21T05:55:14;11.20;84.30
5868;DHT22;2960;49.142;7.768;2023-11-21T05:57:42;11.20;84.40
5868;DHT22;2960;49.142;7.768;2023-11-21T06:00:12;11.20;84.40
5868;DHT22;2960;49.142;7.768;2023-11-21T06:02:41;11.10;84.30
5868;DHT22;2960;49.142;7.768;2023-11-21T06:05:08;11.10;84.40
5868;DHT22;2960;49.142;7.768;2023-11-21T06:07:37;11.10;84.40
5868;DHT22;2960;49.142;7.768;2023-11-21T06:10:06;11.10;84.50
5868;DHT22;2960;49.142;7.768;2023-11-21T06:12:35;11.10;84.50
5868;DHT22;2960;49.142;7.768;2023-11-21T06:15:03;11.10;84.50
5868;DHT22;2960;49.142;7.768;2023-11-21T06:17:32;11.10;84.50
5868;DHT22;2960;49.142;7.768;2023-11-21T06:20:01;11.10;84.40
5868;DHT22;2960;49.142;7.768;2023-11-21T06:22:34;11.10;84.50
5868;DHT22;2960;49.142;7.768;2023-11-21T06:25:04;11.10;84.60
5868;DHT22;2960;49.142;7.768;2023-11-21T06:27:33;11.10;84.80
5868;DHT22;2960;49.142;7.768;2023-11-21T06:30:01;11.10;84.70
5868;DHT22;2960;49.142;7.768;2023-11-21T06:32:29;11.10;84.80
5868;DHT22;2960;49.142;7.768;2023-11-21T06:34:57;11.10;84.90
5868;DHT22;2960;49.142;7.768;2023-11-21T06:37:25;11.00;84.80
5868;DHT22;2960;49.142;7.768;2023-11-21T06:39:52;11.00;84.90
5868;DHT22;2960;49.142;7.768;2023-11-21T06:42:21;11.00;85.00
5868;DHT22;2960;49.142;7.768;2023-11-21T06:44:49;11.00;85.10
5868;DHT22;2960;49.142;7.768;2023-11-21T06:47:17;11.00;85.20
5868;DHT22;2960;49.142;7.768;2023-11-21T06:49:46;11.00;85.30
5868;DHT22;2960;49.142;7.768;2023-11-21T06:52:14;10.90;85.30
5868;DHT22;2960;49.142;7.768;2023-11-21T06:54:42;10.90;85.50
5868;DHT22;2960;49.142;7.768;2023-11-21T06:57:09;10.90;85.60
5868;DHT22;2960;49.142;7.768;2023-11-21T06:59:37;10.90;85.70
5868;DHT22;2960;49.142;7.768;2023-11-21T07:02:05;10.90;85.80
5868;DHT22;2960;49.142;7.768;2023-11-21T07:04:33;10.90;85.90
5868;DHT22;2960;49.142;7.768;2023-11-21T07:07:00;10.90;86.00
5868;DHT22;2960;49.142;7.768;2023-11-21T07:09:27;10.90;86.00
5868;DHT22;2960;49.142;7.768;2023-11-21T07:11:55;10.90;86.10
5868;DHT22;2960;49.142;7.768;2023-11-21T07:14:22;10.80;86.00
5868;DHT22;2960;49.142;7.768;2023-11-21T07:16:50;10.80;86.20
5868;DHT22;2960;49.142;7.768;2023-11-21T07:19:18;10.80;86.30
5868;DHT22;2960;49.142;7.768;2023-11-21T07:21:45;10.80;86.40
5868;DHT22;2960;49.142;7.768;2023-11-21T07:24:12;10.80;86.40
5868;DHT22;2960;49.142;7.768;2023-11-21T07:26:39;10.80;86.40
5868;DHT22;2960;49.142;7.768;2023-11-21T07:29:06;10.90;86.50
5868;DHT22;2960;49.142;7.768;2023-11-21T07:31:33;10.90;86.50
5868;DHT22;2960;49.142;7.768;2023-11-21T07:34:02;10.90;86.50
5868;DHT22;2960;49.142;7.768;2023-11-21T07:36:29;10.90;86.40
5868;DHT22;2960;49.142;7.768;2023-11-21T07:38:56;10.90;87.10
5868;DHT22;2960;49.142;7.768;2023-11-21T07:41:23;10.90;86.40
5868;DHT22;2960;49.142;7.768;2023-11-21T07:43:50;10.90;86.60
5868;DHT22;2960;49.142;7.768;2023-11-21T07:46:18;10.90;86.60
5868;DHT22;2960;49.142;7.768;2023-11-21T07:48:45;10.90;86.80
5868;DHT22;2960;49.142;7.768;2023-11-21T07:51:14;10.90;86.90
5868;DHT22;2960;49.142;7.768;2023-11-21T07:53:41;10.90;87.00
5868;DHT22;2960;49.142;7.768;2023-11-21T07:56:09;10.90;87.00
5868;DHT22;2960;49.142;7.768;2023-11-21T07:58:38;10.90;87.00
5868;DHT22;2960;49.142;7.768;2023-11-21T08:01:05;11.00;87.10
5868;DHT22;2960;49.142;7.768;2023-11-21T08:03:33;11.00;87.00
5868;DHT22;2960;49.142;7.768;2023-11-21T08:06:01;11.00;86.90
5868;DHT22;2960;49.142;7.768;2023-11-21T08:08:32;11.00;86.90
5868;DHT22;2960;49.142;7.768;2023-11-21T08:10:59;11.10;87.00
5868;DHT22;2960;49.142;7.768;2023-11-21T08:13:28;11.10;87.00
5868;DHT22;2960;49.142;7.768;2023-11-21T08:15:56;11.10;87.10
5868;DHT22;2960;49.142;7.768;2023-11-21T08:18:27;11.10;87.20
5868;DHT22;2960;49.142;7.768;2023-11-21T08:20:55;11.10;87.10
5868;DHT22;2960;49.142;7.768;2023-11-21T08:23:22;11.10;86.90
5868;DHT22;2960;49.142;7.768;2023-11-21T08:25:52;11.10;87.00
5868;DHT22;2960;49.142;7.768;2023-11-21T08:28:21;11.10;87.00
5868;DHT22;2960;49.142;7.768;2023-11-21T08:30:49;11.10;87.00
5868;DHT22;2960;49.142;7.768;2023-11-21T08:33:16;11.10;87.00
5868;DHT22;2960;49.142;7.768;2023-11-21T08:35:43;11.20;87.20
5868;DHT22;2960;49.142;7.768;2023-11-21T08:38:11;11.20;87.20
5868;DHT22;2960;49.142;7.768;2023-11-21T08:40:38;11.20;87.20
5868;DHT22;2960;49.142;7.768;2023-11-21T08:43:07;11.20;87.20
5868;DHT22;2960;49.142;7.768;2023-11-21T08:45:34;11.20;87.20
5868;DHT22;2960;49.142;7.768;2023-11-21T08:48:01;11.20;87.00
5868;DHT22;2960;49.142;7.768;2023-11-21T08:50:29;11.20;87.00
5868;DHT22;2960;49.142;7.768;2023-11-21T08:52:56;11.20;87.10
5868;DHT22;2960;49.142;7.768;2023-11-21T08:55:23;11.20;87.20
5868;DHT22;2960;49.142;7.768;2023-11-21T08:57:50;11.20;87.20
5868;DHT22;2960;49.142;7.768;2023-11-21T09:00:19;11.20;87.30
5868;DHT22;2960;49.142;7.768;2023-11-21T09:02:47;11.20;87.20
5868;DHT22;2960;49.142;7.768;2023-11-21T09:05:15;11.20;87.20
5868;DHT22;2960;49.142;7.768;2023-11-21T09:07:43;11.20;87.20
5868;DHT22;2960;49.142;7.768;2023-11-21T09:10:11;11.20;87.20
5868;DHT22;2960;49.142;7.768;2023-11-21T09:12:40;11.20;87.00
5868;DHT22;2960;49.142;7.768;2023-11-21T09:15:09;11.20;87.00
5868;DHT22;2960;49.142;7.768;2023-11-21T09:17:38;11.20;87.00
5868;DHT22;2960;49.142;7.768;2023-11-21T09:20:07;11.30;87.10
5868;DHT22;2960;49.142;7.768;2023-11-21T09:22:35;11.30;87.10
5868;DHT22;2960;49.142;7.768;2023-11-21T09:25:03;11.30;87.00
5868;DHT22;2960;49.142;7.768;2023-11-21T09:27:31;11.30;87.10
5868;DHT22;2960;49.142;7.768;2023-11-21T09:29:58;11.30;87.10
5868;DHT22;2960;49.142;7.768;2023-11-21T09:32:25;11.30;87.00
5868;DHT22;2960;49.142;7.768;2023-11-21T09:34:54;11.30;87.80
5868;DHT22;2960;49.142;7.768;2023-11-21T09:37:24;11.30;86.90
5868;DHT22;2960;49.142;7.768;2023-11-21T09:39:52;11.30;87.00
5868;DHT22;2960;49.142;7.768;2023-11-21T09:42:25;11.30;87.10
5868;DHT22;2960;49.142;7.768;2023-11-21T09:45:03;11.30;87.20
5868;DHT22;2960;49.142;7.768;2023-11-21T09:47:35;11.30;87.30
5868;DHT22;2960;49.142;7.768;2023-11-21T09:50:07;11.30;87.30
5868;DHT22;2960;49.142;7.768;2023-11-21T09:52:44;11.40;87.20
5868;DHT22;2960;49.142;7.768;2023-11-21T09:55:18;11.40;87.20
5868;DHT22;2960;49.142;7.768;2023-11-21T09:57:47;11.40;87.20
5868;DHT22;2960;49.142;7.768;2023-11-21T10:00:16;11.50;87.30
5868;DHT22;2960;49.142;7.768;2023-11-21T10:02:46;11.50;87.30
5868;DHT22;2960;49.142;7.768;2023-11-21T10:05:16;11.50;87.80
5868;DHT22;2960;49.142;7.768;2023-11-21T10:07:46;11.50;87.10
5868;DHT22;2960;49.142;7.768;2023-11-21T10:10:14;11.50;87.00
5868;DHT22;2960;49.142;7.768;2023-11-21T10:12:50;11.50;86.90
5868;DHT22;2960;49.142;7.768;2023-11-21T10:15:22;11.60;87.00
5868;DHT22;2960;49.142;7.768;2023-11-21T10:17:51;11.60;86.90
5868;DHT22;2960;49.142;7.768;2023-11-21T10:20:21;11.60;86.60
5868;DHT22;2960;49.142;7.768;2023-11-21T10:22:50;11.50;86.30
5868;DHT22;2960;49.142;7.768;2023-11-21T10:25:17;11.50;87.00
5868;DHT22;2960;49.142;7.768;2023-11-21T10:27:47;11.60;86.50
5868;DHT22;2960;49.142;7.768;2023-11-21T10:30:17;11.60;86.50
5868;DHT22;2960;49.142;7.768;2023-11-21T10:32:44;11.60;86.50
5868;DHT22;2960;49.142;7.768;2023-11-21T10:35:12;11.60;86.40
5868;DHT22;2960;49.142;7.768;2023-11-21T10:37:40;11.60;86.20
5868;DHT22;2960;49.142;7.768;2023-11-21T10:40:10;11.70;86.20
5868;DHT22;2960;49.142;7.768;2023-11-21T10:42:37;11.70;86.20
5868;DHT22;2960;49.142;7.768;2023-11-21T10:45:05;11.70;86.20
5868;DHT22;2960;49.142;7.768;2023-11-21T10:47:38;11.70;86.30
5868;DHT22;2960;49.142;7.768;2023-11-21T10:50:06;11.70;86.20
5868;DHT22;2960;49.142;7.768;2023-11-21T10:52:36;11.80;86.30
5868;DHT22;2960;49.142;7.768;2023-11-21T10:55:16;11.80;86.10
5868;DHT22;2960;49.142;7.768;2023-11-21T10:57:46;11.90;86.00
5868;DHT22;2960;49.142;7.768;2023-11-21T11:00:16;11.90;85.80
5868;DHT22;2960;49.142;7.768;2023-11-21T11:02:49;12.00;85.80
5868;DHT22;2960;49.142;7.768;2023-11-21T11:05:20;12.10;85.70
5868;DHT22;2960;49.142;7.768;2023-11-21T11:07:51;12.10;85.50
5868;DHT22;2960;49.142;7.768;2023-11-21T11:10:21;12.10;85.20
5868;DHT22;2960;49.142;7.768;2023-11-21T11:12:53;12.20;84.90
5868;DHT22;2960;49.142;7.768;2023-11-21T11:15:21;12.20;84.70
5868;DHT22;2960;49.142;7.768;2023-11-21T11:17:49;12.20;84.40
5868;DHT22;2960;49.142;7.768;2023-11-21T11:20:17;12.20;84.20
5868;DHT22;2960;49.142;7.768;2023-11-21T11:22:59;12.20;84.00
5868;DHT22;2960;49.142;7.768;2023-11-21T11:25:46;12.20;83.80
5868;DHT22;2960;49.142;7.768;2023-11-21T11:28:21;12.20;83.50
5868;DHT22;2960;49.142;7.768;2023-11-21T11:31:01;12.10;83.50
5868;DHT22;2960;49.142;7.768;2023-11-21T11:33:36;12.20;83.60
5868;DHT22;2960;49.142;7.768;2023-11-21T11:36:08;12.20;83.40
5868;DHT22;2960;49.142;7.768;2023-11-21T11:38:45;12.10;83.20
5868;DHT22;2960;49.142;7.768;2023-11-21T11:41:24;12.10;83.00
5868;DHT22;2960;49.142;7.768;2023-11-21T11:43:53;12.10;83.00
5868;DHT22;2960;49.142;7.768;2023-11-21T11:46:20;12.10;83.10
5868;DHT22;2960;49.142;7.768;2023-11-21T11:49:07;12.00;82.80
5868;DHT22;2960;49.142;7.768;2023-11-21T11:51:34;12.00;82.80
5868;DHT22;2960;49.142;7.768;2023-11-21T11:54:03;12.00;82.80
5868;DHT22;2960;49.142;7.768;2023-11-21T11:56:34;12.00;82.70
5868;DHT22;2960;49.142;7.768;2023-11-21T11:59:04;12.00;82.70
5868;DHT22;2960;49.142;7.768;2023-11-21T12:01:34;12.00;83.40
5868;DHT22;2960;49.142;7.768;2023-11-21T12:04:23;12.00;83.40
5868;DHT22;2960;49.142;7.768;2023-11-21T12:06:59;12.00;82.70
5868;DHT22;2960;49.142;7.768;2023-11-21T12:09:29;12.00;83.50
5868;DHT22;2960;49.142;7.768;2023-11-21T12:11:59;12.00;82.50
5868;DHT22;2960;49.142;7.768;2023-11-21T12:14:27;12.00;82.40
5868;DHT22;2960;49.142;7.768;2023-11-21T12:16:55;12.00;82.40
5868;DHT22;2960;49.142;7.768;2023-11-21T12:19:22;12.10;82.40
5868;DHT22;2960;49.142;7.768;2023-11-21T12:21:49;12.10;82.30
5868;DHT22;2960;49.142;7.768;2023-11-21T12:24:17;12.10;82.20
5868;DHT22;2960;49.142;7.768;2023-11-21T12:26:44;12.10;82.10
5868;DHT22;2960;49.142;7.768;2023-11-21T12:29:13;12.10;82.00
5868;DHT22;2960;49.142;7.768;2023-11-21T12:31:42;12.20;81.90
5868;DHT22;2960;49.142;7.768;2023-11-21T12:34:10;12.20;81.70
5868;DHT22;2960;49.142;7.768;2023-11-21T12:36:37;12.20;81.30
5868;DHT22;2960;49.142;7.768;2023-11-21T12:39:05;12.20;81.10
5868;DHT22;2960;49.142;7.768;2023-11-21T12:41:35;12.20;80.80
5868;DHT22;2960;49.142;7.768;2023-11-21T12:44:02;12.20;80.70
5868;DHT22;2960;49.142;7.768;2023-11-21T12:46:31;12.20;80.50
5868;DHT22;2960;49.142;7.768;2023-11-21T12:49:00;12.20;80.50
5868;DHT22;2960;49.142;7.768;2023-11-21T12:51:27;12.10;80.40
5868;DHT22;2960;49.142;7.768;2023-11-21T12:53:55;12.10;80.30
5868;DHT22;2960;49.142;7.768;2023-11-21T12:56:24;12.10;80.40
5868;DHT22;2960;49.142;7.768;2023-11-21T12:58:54;12.00;80.40
5868;DHT22;2960;49.142;7.768;2023-11-21T13:01:25;12.00;80.50
5868;DHT22;2960;49.142;7.768;2023-11-21T13:03:57;12.00;80.60
5868;DHT22;2960;49.142;7.768;2023-11-21T13:06:25;12.10;80.70
5868;DHT22;2960;49.142;7.768;2023-11-21T13:08:59;12.10;80.60
5868;DHT22;2960;49.142;7.768;2023-11-21T13:11:26;12.20;80.70
5868;DHT22;2960;49.142;7.768;2023-11-21T13:13:57;12.20;80.60
5868;DHT22;2960;49.142;7.768;2023-11-21T13:16:26;12.20;80.60
5868;DHT22;2960;49.142;7.768;2023-11-21T13:18:53;12.30;80.50
5868;DHT22;2960;49.142;7.768;2023-11-21T13:21:22;12.40;80.40
5868;DHT22;2960;49.142;7.768;2023-11-21T13:23:50;12.50;80.10
5868;DHT22;2960;49.142;7.768;2023-11-21T13:26:18;12.60;80.10
5868;DHT22;2960;49.142;7.768;2023-11-21T13:28:58;12.70;79.90
5868;DHT22;2960;49.142;7.768;2023-11-21T13:31:30;12.70;79.60
5868;DHT22;2960;49.142;7.768;2023-11-21T13:33:58;12.80;79.50
5868;DHT22;2960;49.142;7.768;2023-11-21T13:36:32;12.80;79.20
5868;DHT22;2960;49.142;7.768;2023-11-21T13:39:01;12.90;79.10
5868;DHT22;2960;49.142;7.768;2023-11-21T13:41:33;12.90;78.90
5868;DHT22;2960;49.142;7.768;2023-11-21T13:44:00;13.00;78.80
5868;DHT22;2960;49.142;7.768;2023-11-21T13:46:41;13.00;78.50
5868;DHT22;2960;49.142;7.768;2023-11-21T13:49:08;13.10;78.30
5868;DHT22;2960;49.142;7.768;2023-11-21T13:51:38;13.10;78.00
5868;DHT22;2960;49.142;7.768;2023-11-21T13:54:10;13.10;77.80
5868;DHT22;2960;49.142;7.768;2023-11-21T13:56:37;13.10;77.50
5868;DHT22;2960;49.142;7.768;2023-11-21T13:59:05;13.10;77.30
5868;DHT22;2960;49.142;7.768;2023-11-21T14:01:44;13.10;77.10
5868;DHT22;2960;49.142;7.768;2023-11-21T14:04:21;13.00;76.90
5868;DHT22;2960;49.142;7.768;2023-11-21T14:07:13;13.00;76.80
5868;DHT22;2960;49.142;7.768;2023-11-21T14:09:57;12.90;76.70
5868;DHT22;2960;49.142;7.768;2023-11-21T14:12:25;12.80;76.80
5868;DHT22;2960;49.142;7.768;2023-11-21T14:14:52;12.80;76.90
5868;DHT22;2960;49.142;7.768;2023-11-21T14:17:20;12.70;76.70
5868;DHT22;2960;49.142;7.768;2023-11-21T14:19:49;12.70;76.90
5868;DHT22;2960;49.142;7.768;2023-11-21T14:22:18;12.60;76.90
5868;DHT22;2960;49.142;7.768;2023-11-21T14:24:46;12.60;77.00
5868;DHT22;2960;49.142;7.768;2023-11-21T14:27:16;12.50;76.90
5868;DHT22;2960;49.142;7.768;2023-11-21T14:29:45;12.50;77.00
5868;DHT22;2960;49.142;7.768;2023-11-21T14:32:16;12.40;76.90
5868;DHT22;2960;49.142;7.768;2023-11-21T14:34:43;12.40;77.10
5868;DHT22;2960;49.142;7.768;2023-11-21T14:37:12;12.40;77.20
5868;DHT22;2960;49.142;7.768;2023-11-21T14:39:41;12.30;77.40
5868;DHT22;2960;49.142;7.768;2023-11-21T14:42:11;12.30;77.60
5868;DHT22;2960;49.142;7.768;2023-11-21T14:44:40;12.20;77.70
5868;DHT22;2960;49.142;7.768;2023-11-21T14:47:08;12.20;77.80
5868;DHT22;2960;49.142;7.768;2023-11-21T14:49:41;12.20;77.90
5868;DHT22;2960;49.142;7.768;2023-11-21T14:52:18;12.20;78.00
5868;DHT22;2960;49.142;7.768;2023-11-21T14:54:59;12.10;78.00
5868;DHT22;2960;49.142;7.768;2023-11-21T14:57:40;12.10;78.10
5868;DHT22;2960;49.142;7.768;2023-11-21T15:00:12;12.10;78.10
5868;DHT22;2960;49.142;7.768;2023-11-21T15:03:00;12.10;78.20
5868;DHT22;2960;49.142;7.768;2023-11-21T15:05:27;12.10;78.20
5868;DHT22;2960;49.142;7.768;2023-11-21T15:07:54;12.00;78.00
5868;DHT22;2960;49.142;7.768;2023-11-21T15:10:25;12.00;78.00
5868;DHT22;2960;49.142;7.768;2023-11-21T15:13:05;12.00;78.20
5868;DHT22;2960;49.142;7.768;2023-11-21T15:15:31;12.00;78.30
5868;DHT22;2960;49.142;7.768;2023-11-21T15:18:02;12.00;78.50
5868;DHT22;2960;49.142;7.768;2023-11-21T15:20:32;11.90;78.50
5868;DHT22;2960;49.142;7.768;2023-11-21T15:22:59;11.90;78.80
5868;DHT22;2960;49.142;7.768;2023-11-21T15:25:29;11.90;78.90
5868;DHT22;2960;49.142;7.768;2023-11-21T15:27:56;11.80;79.00
5868;DHT22;2960;49.142;7.768;2023-11-21T15:30:23;11.80;79.20
5868;DHT22;2960;49.142;7.768;2023-11-21T15:32:51;11.80;79.40
5868;DHT22;2960;49.142;7.768;2023-11-21T15:35:20;11.70;79.50
5868;DHT22;2960;49.142;7.768;2023-11-21T15:37:47;11.70;79.70
5868;DHT22;2960;49.142;7.768;2023-11-21T15:40:14;11.70;79.90
5868;DHT22;2960;49.142;7.768;2023-11-21T15:42:44;11.70;80.00
5868;DHT22;2960;49.142;7.768;2023-11-21T15:45:11;11.60;80.10
5868;DHT22;2960;49.142;7.768;2023-11-21T15:47:38;11.60;80.20
5868;DHT22;2960;49.142;7.768;2023-11-21T15:50:07;11.60;80.40
5868;DHT22;2960;49.142;7.768;2023-11-21T15:52:36;11.50;80.50
5868;DHT22;2960;49.142;7.768;2023-11-21T15:55:04;11.50;80.70
5868;DHT22;2960;49.142;7.768;2023-11-21T15:57:32;11.40;80.80
5868;DHT22;2960;49.142;7.768;2023-11-21T16:00:00;11.40;81.00
5868;DHT22;2960;49.142;7.768;2023-11-21T16:02:34;11.40;81.10
5868;DHT22;2960;49.142;7.768;2023-11-21T16:05:01;11.30;81.10
5868;DHT22;2960;49.142;7.768;2023-11-21T16:07:30;11.30;81.20
5868;DHT22;2960;49.142;7.768;2023-11-21T16:09:58;11.30;81.30
5868;DHT22;2960;49.142;7.768;2023-11-21T16:12:25;11.20;81.40